Time;durP1;ratioP1;P1;durP2;ratioP2;P2;SDS_P1;SDS_P2;PMS_P1;PMS_P2;Temp;Humidity;BMP_temperature;BMP_pressure;BME280_temperature;BME280_humidity;BME280_pressure;Samples;Min_cycle;Max_cycle;Signal;HPM_P1;HPM_P2
2023/05/20 00:01:37;;;;;;;7.20;6.40;;;;;;;16.88;74.46;100522.59;106132;1253;70088;-72
2023/05/20 00:04:04;;;;;;;8.90;7.60;;;;;;;16.89;74.47;100520.55;106106;1266;74335;-73
2023/05/20 00:06:32;;;;;;;7.30;6.60;;;;;;;16.84;74.55;100517.67;106154;1253;60535;-73
2023/05/20 00:08:59;;;;;;;7.90;6.90;;;;;;;16.76;74.71;100520.17;106297;1255;61156;-73
2023/05/20 00:11:26;;;;;;;9.50;7.30;;;;;;;16.68;74.91;100515.45;106766;1253;74107;-72
2023/05/20 00:13:53;;;;;;;10.10;7.50;;;;;;;16.61;75.06;100513.31;106050;1254;69333;-73
2023/05/20 00:16:19;;;;;;;9.60;6.40;;;;;;;16.56;75.31;100510.70;106015;1254;73043;-74
2023/05/20 00:18:46;;;;;;;9.40;6.50;;;;;;;16.59;75.22;100509.74;106071;1258;62023;-73
2023/05/20 00:21:13;;;;;;;8.00;6.70;;;;;;;16.62;75.24;100513.56;106160;1254;60398;-74
2023/05/20 00:23:40;;;;;;;8.40;7.00;;;;;;;16.58;75.41;100510.73;106186;1256;72288;-72
2023/05/20 00:26:06;;;;;;;9.20;7.00;;;;;;;16.55;75.38;100515.42;106352;1254;71015;-72
2023/05/20 00:28:33;;;;;;;7.50;6.80;;;;;;;16.51;75.54;100516.09;106202;1256;72039;-73
2023/05/20 00:31:00;;;;;;;8.60;7.70;;;;;;;16.48;75.53;100516.88;105948;1259;61597;-71
2023/05/20 00:33:27;;;;;;;7.80;6.20;;;;;;;16.44;75.66;100517.28;106106;1254;60540;-73
2023/05/20 00:35:54;;;;;;;11.40;6.60;;;;;;;16.50;75.55;100517.44;106129;1254;72671;-73
2023/05/20 00:38:21;;;;;;;7.70;6.80;;;;;;;16.53;75.47;100515.29;106022;1259;68230;-71
2023/05/20 00:40:47;;;;;;;9.90;7.50;;;;;;;16.51;75.68;100518.06;106018;1258;73678;-72
2023/05/20 00:43:14;;;;;;;7.60;6.70;;;;;;;16.48;75.62;100518.60;105978;1256;60423;-71
2023/05/20 00:45:41;;;;;;;7.80;7.00;;;;;;;16.44;75.75;100521.21;106012;1254;60513;-73
2023/05/20 00:48:08;;;;;;;9.60;7.70;;;;;;;16.41;75.86;100514.41;105914;1256;72187;-73
2023/05/20 00:50:35;;;;;;;7.90;6.30;;;;;;;16.40;75.88;100517.77;106343;1254;70750;-72
2023/05/20 00:53:02;;;;;;;8.00;6.80;;;;;;;16.47;75.69;100521.16;107180;1254;73636;-74
2023/05/20 00:55:29;;;;;;;7.60;6.60;;;;;;;16.49;75.80;100519.70;107202;1254;59323;-74
2023/05/20 00:57:56;;;;;;;10.60;8.10;;;;;;;16.47;75.72;100519.29;107466;1254;60434;-72
2023/05/20 01:00:23;;;;;;;8.20;6.60;;;;;;;16.46;75.69;100517.80;107216;1253;72668;-73
2023/05/20 01:02:50;;;;;;;8.10;7.30;;;;;;;16.45;75.79;100519.68;107068;1252;71241;-73
2023/05/20 01:05:18;;;;;;;9.60;6.70;;;;;;;16.42;75.74;100517.51;107511;1253;72897;-76
2023/05/20 01:07:46;;;;;;;7.40;6.20;;;;;;;16.48;75.66;100516.95;107045;1252;62325;-73
2023/05/20 01:10:13;;;;;;;9.60;6.20;;;;;;;16.51;75.64;100513.91;107119;1253;60398;-75
2023/05/20 01:13:01;;;;;;;7.10;6.50;;;;;;;16.47;75.66;100510.27;107702;1254;73866;-75
2023/05/20 01:15:29;;;;;;;7.30;6.50;;;;;;;16.40;75.78;100509.80;107629;1254;69727;-74
2023/05/20 01:18:00;;;;;;;9.30;7.00;;;;;;;16.33;75.81;100509.86;107469;1253;71547;-74
2023/05/20 01:20:31;;;;;;;8.40;6.80;;;;;;;16.27;76.05;100507.91;107342;1254;62208;-73
2023/05/20 01:22:58;;;;;;;8.40;6.90;;;;;;;16.33;76.12;100507.61;107129;1254;60350;-73
2023/05/20 01:25:25;;;;;;;7.40;6.50;;;;;;;16.34;76.16;100512.24;107322;1258;74872;-72
2023/05/20 01:27:53;;;;;;;8.80;6.90;;;;;;;16.30;76.34;100510.60;106958;1256;70459;-72
2023/05/20 01:30:21;;;;;;;8.80;7.10;;;;;;;16.27;76.48;100507.42;106889;1254;71585;-70
2023/05/20 01:32:51;;;;;;;11.20;7.40;;;;;;;16.23;76.45;100510.66;106943;1253;60345;-71
2023/05/20 01:35:19;;;;;;;7.60;6.80;;;;;;;16.20;76.48;100506.09;106769;1253;60439;-73
2023/05/20 01:37:46;;;;;;;12.50;6.70;;;;;;;16.25;76.48;100510.81;106601;1254;73244;-72
2023/05/20 01:40:15;;;;;;;9.10;6.90;;;;;;;16.26;76.50;100509.09;106609;1259;69432;-72
2023/05/20 01:42:42;;;;;;;7.20;6.50;;;;;;;16.20;76.36;100507.29;107329;1254;72457;-72
2023/05/20 01:45:10;;;;;;;7.80;6.50;;;;;;;16.15;76.48;100512.45;108935;1254;58753;-72
2023/05/20 01:47:39;;;;;;;7.40;6.60;;;;;;;16.09;76.46;100509.90;109023;1254;61417;-77
2023/05/20 01:50:07;;;;;;;11.00;6.30;;;;;;;16.07;76.31;100513.55;108140;1256;73804;-77
2023/05/20 01:52:35;;;;;;;8.60;6.80;;;;;;;16.14;76.18;100518.38;108411;1253;69397;-78
2023/05/20 01:55:02;;;;;;;8.50;7.10;;;;;;;16.17;76.00;100518.08;108348;1254;71681;-76
2023/05/20 01:57:29;;;;;;;8.00;7.20;;;;;;;16.12;76.00;100519.23;108187;1254;61863;-77
2023/05/20 01:59:56;;;;;;;8.40;6.20;;;;;;;16.06;76.05;100519.55;108291;1258;60434;-79
2023/05/20 02:02:23;;;;;;;7.50;6.80;;;;;;;16.01;76.05;100516.73;108525;1254;74026;-78
2023/05/20 02:04:50;;;;;;;7.70;6.70;;;;;;;15.97;75.96;100518.22;108482;1254;68093;-79
2023/05/20 02:07:17;;;;;;;7.60;5.80;;;;;;;15.91;76.02;100520.45;108349;1254;73757;-77
2023/05/20 02:09:45;;;;;;;7.40;6.30;;;;;;;15.94;76.03;100522.19;108799;1253;60142;-78
2023/05/20 02:12:15;;;;;;;9.00;6.70;;;;;;;15.95;75.81;100520.72;108713;1254;60597;-79
2023/05/20 02:14:43;;;;;;;9.00;6.50;;;;;;;15.88;75.96;100519.70;108412;1258;72716;-77
2023/05/20 02:17:15;;;;;;;6.50;5.90;;;;;;;15.81;76.23;100518.95;108900;1253;70178;-75
2023/05/20 02:19:44;;;;;;;9.40;6.30;;;;;;;15.77;76.34;100516.63;108774;1254;71690;-77
2023/05/20 02:22:13;;;;;;;7.50;6.60;;;;;;;15.74;76.32;100522.30;108708;1254;58943;-76
2023/05/20 02:24:42;;;;;;;8.50;6.30;;;;;;;15.74;76.21;100521.63;109043;1254;60431;-77
2023/05/20 02:27:10;;;;;;;8.80;6.00;;;;;;;15.83;76.00;100521.38;109145;1253;71807;-78
2023/05/20 02:29:37;;;;;;;7.60;6.70;;;;;;;15.88;75.74;100526.52;109085;1256;70727;-78
2023/05/20 02:32:04;;;;;;;8.40;6.10;;;;;;;15.85;75.52;100522.83;108886;1254;72344;-77
2023/05/20 02:34:32;;;;;;;7.00;6.20;;;;;;;15.81;75.47;100521.80;107632;1254;60455;-76
2023/05/20 02:37:00;;;;;;;8.50;6.60;;;;;;;15.75;75.10;100519.68;107514;1254;60581;-77
2023/05/20 02:39:27;;;;;;;6.60;6.00;;;;;;;15.68;75.34;100518.22;108307;1257;72885;-79
2023/05/20 02:41:55;;;;;;;6.90;6.20;;;;;;;15.65;75.25;100520.48;108183;1256;71283;-78
2023/05/20 02:44:22;;;;;;;6.30;5.50;;;;;;;15.71;75.02;100524.27;108035;1254;70460;-77
2023/05/20 02:46:49;;;;;;;7.30;6.20;;;;;;;15.73;74.79;100524.16;106870;1260;60377;-79
2023/05/20 02:49:16;;;;;;;6.80;6.00;;;;;;;15.69;74.70;100527.02;106130;1259;60434;-76
2023/05/20 02:51:42;;;;;;;6.80;5.90;;;;;;;15.64;74.73;100527.77;105961;1257;73610;-77
2023/05/20 02:54:09;;;;;;;8.80;6.60;;;;;;;15.59;74.53;100536.05;105973;1254;70273;-77
2023/05/20 02:56:36;;;;;;;6.90;6.10;;;;;;;15.51;74.52;100538.72;105943;1257;72768;-77
2023/05/20 02:59:03;;;;;;;7.20;5.60;;;;;;;15.45;74.48;100540.73;105984;1267;61929;-74
2023/05/20 03:01:32;;;;;;;7.90;5.70;;;;;;;15.49;74.57;100536.87;105942;1254;60445;-76
2023/05/20 03:04:01;;;;;;;7.00;5.90;;;;;;;15.50;74.34;100545.87;106051;1258;72396;-75
2023/05/20 03:06:31;;;;;;;6.80;5.90;;;;;;;15.44;74.36;100547.79;106163;1258;71057;-75
2023/05/20 03:08:58;;;;;;;6.50;5.90;;;;;;;15.40;74.52;100548.42;106197;1259;72872;-76
2023/05/20 03:11:25;;;;;;;7.40;6.40;;;;;;;15.39;74.33;100553.17;106191;1260;60370;-76
2023/05/20 03:13:52;;;;;;;10.90;6.70;;;;;;;15.39;74.44;100556.97;106287;1255;60557;-77
2023/05/20 03:16:19;;;;;;;6.50;5.70;;;;;;;15.40;74.30;100555.88;106070;1254;72282;-78
2023/05/20 03:18:48;;;;;;;5.70;5.10;;;;;;;15.49;74.18;100555.38;106100;1254;71486;-77
2023/05/20 03:21:16;;;;;;;7.80;5.80;;;;;;;15.56;74.18;100556.06;106093;1257;72711;-77
2023/05/20 03:23:43;;;;;;;6.40;5.80;;;;;;;15.56;74.00;100554.98;106098;1257;60432;-79
2023/05/20 03:26:10;;;;;;;7.20;6.30;;;;;;;15.57;73.86;100553.60;106061;1257;60418;-79
2023/05/20 03:28:37;;;;;;;6.80;5.80;;;;;;;15.56;74.10;100554.75;106009;1254;74494;-78
2023/05/20 03:31:04;;;;;;;7.60;6.10;;;;;;;15.53;73.98;100552.73;106020;1254;70307;-78
2023/05/20 03:33:33;;;;;;;7.90;5.60;;;;;;;15.49;73.94;100558.92;106009;1256;72101;-77
2023/05/20 03:36:01;;;;;;;8.90;5.80;;;;;;;15.56;74.07;100555.08;106003;1254;60516;-76
2023/05/20 03:38:29;;;;;;;9.60;5.50;;;;;;;15.62;73.97;100554.96;105682;1254;61510;-76
2023/05/20 03:40:56;;;;;;;7.30;6.40;;;;;;;15.62;73.96;100555.83;105781;1257;421664;-77
2023/05/20 03:44:52;;;;;;;7.80;6.80;;;;;;;15.67;73.88;100554.71;102850;1296;600255;-76
2023/05/20 03:47:19;;;;;;;9.20;6.90;;;;;;;15.68;73.77;100554.98;105085;1267;59328;-77
2023/05/20 03:49:46;;;;;;;8.00;6.40;;;;;;;15.70;73.73;100553.81;104849;1274;60928;-76
2023/05/20 03:52:13;;;;;;;7.20;6.50;;;;;;;15.72;73.73;100553.77;105314;1264;74165;-77
2023/05/20 03:54:40;;;;;;;7.20;6.20;;;;;;;15.78;73.59;100550.46;105308;1270;71435;-76
2023/05/20 03:57:09;;;;;;;6.90;6.20;;;;;;;15.79;73.45;100553.15;105208;1264;74572;-78
2023/05/20 03:59:36;;;;;;;9.10;7.10;;;;;;;15.77;73.67;100556.29;105587;1257;162743;-78
2023/05/20 04:02:03;;;;;;;12.30;6.80;;;;;;;15.78;73.62;100559.77;105753;1260;60589;-76
2023/05/20 04:04:31;;;;;;;10.90;6.80;;;;;;;15.77;73.62;100559.81;105697;1254;74720;-76
2023/05/20 04:07:00;;;;;;;7.20;6.50;;;;;;;15.76;73.77;100560.73;105752;1260;71174;-76
2023/05/20 04:09:28;;;;;;;8.70;5.90;;;;;;;15.78;73.80;100556.85;105721;1258;72762;-77
2023/05/20 04:11:54;;;;;;;11.00;6.40;;;;;;;15.91;73.54;100559.25;106083;1257;60464;-79
2023/05/20 04:14:21;;;;;;;6.80;5.80;;;;;;;16.00;73.35;100562.16;106590;1253;59913;-78
2023/05/20 04:16:49;;;;;;;7.20;6.60;;;;;;;16.00;73.50;100562.99;106070;1254;72130;-78
2023/05/20 04:19:18;;;;;;;7.60;6.70;;;;;;;16.03;73.39;100573.02;105913;1259;71258;-76
2023/05/20 04:21:45;;;;;;;8.00;6.80;;;;;;;16.12;73.39;100572.45;105833;1254;75113;-75
2023/05/20 04:24:13;;;;;;;9.10;6.90;;;;;;;16.20;73.10;100571.46;105985;1254;61718;-76
2023/05/20 04:26:40;;;;;;;8.80;6.60;;;;;;;16.26;72.86;100576.27;105855;1254;62069;-79
2023/05/20 04:29:07;;;;;;;9.60;6.20;;;;;;;16.33;72.75;100581.50;106162;1254;74971;-76
2023/05/20 04:31:34;;;;;;;8.20;6.60;;;;;;;16.48;72.58;100580.75;106245;1253;72399;-76
2023/05/20 04:34:01;;;;;;;8.00;6.20;;;;;;;16.63;72.37;100580.28;106877;1253;74588;-79
2023/05/20 04:36:29;;;;;;;7.80;6.60;;;;;;;16.70;72.11;100578.35;106457;1254;62463;-75
2023/05/20 04:38:57;;;;;;;10.00;7.10;;;;;;;16.76;71.73;100578.17;106429;1260;61893;-78
2023/05/20 04:41:24;;;;;;;9.30;7.10;;;;;;;16.77;71.62;100575.36;106287;1255;75094;-79
2023/05/20 04:43:50;;;;;;;8.70;7.10;;;;;;;16.73;71.61;100581.02;106109;1253;71128;-80
2023/05/20 04:46:19;;;;;;;14.60;7.30;;;;;;;16.71;71.81;100584.25;106041;1253;74869;-80
2023/05/20 04:48:46;;;;;;;7.90;6.50;;;;;;;16.75;71.98;100587.37;105929;1254;63801;-77
2023/05/20 04:51:13;;;;;;;7.90;6.40;;;;;;;16.98;71.70;100590.67;106130;1253;62304;-76
2023/05/20 04:53:40;;;;;;;9.10;6.50;;;;;;;17.20;71.17;100588.66;106119;1254;75333;-75
2023/05/20 04:56:10;;;;;;;9.90;6.90;;;;;;;17.27;70.65;100590.28;105970;1257;72338;-74
2023/05/20 04:58:38;;;;;;;7.50;6.80;;;;;;;17.28;70.60;100588.91;105969;1259;74662;-78
2023/05/20 05:01:06;;;;;;;6.70;6.10;;;;;;;17.29;70.42;100587.65;106029;1254;60537;-79
2023/05/20 05:03:33;;;;;;;7.10;6.20;;;;;;;17.34;70.33;100587.62;105929;1259;61602;-78
2023/05/20 05:06:02;;;;;;;10.70;6.00;;;;;;;17.42;70.18;100586.95;105758;1259;74897;-77
2023/05/20 05:08:29;;;;;;;8.10;6.30;;;;;;;17.48;69.77;100588.37;105932;1258;68516;-78
2023/05/20 05:10:57;;;;;;;9.10;5.70;;;;;;;17.48;69.57;100586.42;105994;1254;75138;-76
2023/05/20 05:13:24;;;;;;;9.00;6.20;;;;;;;17.47;69.41;100581.54;106068;1253;59876;-75
2023/05/20 05:15:59;;;;;;;6.60;5.50;;;;;;;17.47;69.12;100577.58;105846;1254;62339;-75
2023/05/20 05:18:27;;;;;;;7.70;5.90;;;;;;;17.49;68.87;100576.27;105877;1259;72343;-77
2023/05/20 05:21:04;;;;;;;7.00;6.30;;;;;;;17.54;68.71;100578.95;105871;1258;71389;-79
2023/05/20 05:23:31;;;;;;;7.00;6.00;;;;;;;17.56;68.49;100579.75;105807;1253;74740;-77
2023/05/20 05:25:58;;;;;;;8.40;6.40;;;;;;;17.55;68.35;100580.56;105983;1257;61069;-78
2023/05/20 05:28:26;;;;;;;6.70;5.30;;;;;;;17.53;68.19;100586.44;105846;1253;60988;-73
2023/05/20 05:30:54;;;;;;;6.40;5.80;;;;;;;17.53;68.18;100586.05;105753;1253;71367;-72
2023/05/20 05:33:21;;;;;;;6.20;5.60;;;;;;;17.55;68.14;100590.40;105871;1253;72270;-76
2023/05/20 05:35:48;;;;;;;7.80;6.10;;;;;;;17.60;68.20;100589.42;105993;1256;72858;-76
2023/05/20 05:38:15;;;;;;;7.60;6.00;;;;;;;17.66;67.80;100593.52;105691;1260;59759;-77
2023/05/20 05:40:42;;;;;;;9.40;5.90;;;;;;;17.71;67.50;100588.05;105715;1258;61827;-78
2023/05/20 05:43:09;;;;;;;7.40;6.10;;;;;;;17.75;66.97;100594.34;105816;1253;73053;-76
2023/05/20 05:45:37;;;;;;;5.90;5.30;;;;;;;17.78;66.55;100597.14;105800;1253;72212;-76
2023/05/20 05:48:04;;;;;;;6.40;5.70;;;;;;;17.82;66.24;100593.95;105652;1253;72948;-77
2023/05/20 05:50:31;;;;;;;7.80;5.10;;;;;;;17.84;66.00;100592.41;105750;1253;61269;-78
2023/05/20 05:52:58;;;;;;;7.90;6.00;;;;;;;17.86;65.64;100591.36;106032;1253;59612;-77
2023/05/20 05:55:25;;;;;;;6.70;5.90;;;;;;;17.84;65.28;100593.33;105918;1253;72578;-77
2023/05/20 05:57:52;;;;;;;6.20;5.50;;;;;;;17.85;65.07;100593.50;105959;1258;72514;-76
2023/05/20 06:00:21;;;;;;;7.20;5.70;;;;;;;17.86;64.88;100591.65;105950;1254;75024;-78
2023/05/20 06:02:47;;;;;;;7.20;5.70;;;;;;;17.90;64.88;100593.63;105828;1256;61276;-78
2023/05/20 06:05:25;;;;;;;6.70;6.00;;;;;;;17.95;64.67;100596.39;105843;1253;59736;-77
2023/05/20 06:07:55;;;;;;;5.70;5.20;;;;;;;17.98;64.08;100591.83;106005;1258;75015;-81
2023/05/20 06:10:22;;;;;;;6.80;5.80;;;;;;;17.99;63.87;100589.50;105966;1258;71451;-78
2023/05/20 06:12:49;;;;;;;5.60;5.10;;;;;;;18.04;63.59;100588.05;105962;1253;73609;-78
2023/05/20 06:15:17;;;;;;;7.70;5.00;;;;;;;18.10;63.13;100582.09;106273;1257;63081;-80
2023/05/20 06:17:44;;;;;;;8.20;6.20;;;;;;;18.16;62.62;100585.08;106399;1256;60780;-78
2023/05/20 06:20:12;;;;;;;7.90;5.00;;;;;;;18.21;62.27;100583.98;106251;1253;73504;-77
2023/05/20 06:22:39;;;;;;;8.40;5.40;;;;;;;18.26;61.89;100584.31;105942;1257;72814;-79
2023/05/20 06:25:08;;;;;;;10.70;5.10;;;;;;;18.28;61.44;100585.06;105856;1253;72947;-77
2023/05/20 06:27:35;;;;;;;5.40;4.90;;;;;;;18.33;61.41;100582.77;106015;1260;61149;-79
2023/05/20 06:30:07;;;;;;;6.10;5.40;;;;;;;18.41;61.36;100583.02;106160;1254;63178;-79
2023/05/20 06:32:33;;;;;;;5.30;4.80;;;;;;;18.51;60.80;100579.64;106035;1253;73806;-77
2023/05/20 06:35:01;;;;;;;9.60;5.70;;;;;;;18.57;60.48;100579.40;105537;1259;71313;-78
2023/05/20 06:37:29;;;;;;;6.40;5.40;;;;;;;18.64;60.23;100581.73;106083;1253;74028;-77
2023/05/20 06:39:56;;;;;;;6.30;5.30;;;;;;;18.71;60.01;100578.60;105991;1256;61138;-74
2023/05/20 06:42:23;;;;;;;5.90;5.10;;;;;;;18.80;59.97;100580.14;105541;1252;62474;-77
2023/05/20 06:45:02;;;;;;;9.90;6.10;;;;;;;18.88;59.22;100574.77;106034;1256;74130;-78
2023/05/20 06:47:40;;;;;;;12.20;5.40;;;;;;;18.91;58.38;100578.01;105980;1253;72613;-74
2023/05/20 06:50:08;;;;;;;7.80;5.00;;;;;;;18.92;57.64;100583.05;106034;1254;73522;-77
2023/05/20 06:52:35;;;;;;;9.60;5.00;;;;;;;18.90;57.72;100583.01;105339;1254;60746;-78
2023/05/20 06:55:04;;;;;;;6.60;5.40;;;;;;;18.92;57.69;100583.89;106987;1253;62299;-77
2023/05/20 06:57:32;;;;;;;7.20;5.10;;;;;;;18.96;57.84;100583.15;106692;1253;71728;-73
2023/05/20 06:59:59;;;;;;;8.60;5.70;;;;;;;19.02;57.76;100579.40;106169;1259;72054;-77
2023/05/20 07:02:26;;;;;;;9.40;5.60;;;;;;;19.09;57.57;100582.27;105936;1260;75382;-76
2023/05/20 07:04:53;;;;;;;5.70;5.10;;;;;;;19.14;57.21;100584.69;105966;1253;61386;-76
2023/05/20 07:07:20;;;;;;;7.00;6.10;;;;;;;19.16;56.72;100580.09;105256;1258;61378;-77
2023/05/20 07:09:46;;;;;;;7.20;5.50;;;;;;;19.17;56.30;100580.31;105899;1253;75180;-77
2023/05/20 07:12:14;;;;;;;8.40;5.00;;;;;;;19.19;55.58;100577.16;106226;1253;71708;-76
2023/05/20 07:14:41;;;;;;;7.30;5.00;;;;;;;19.21;55.15;100575.09;106048;1259;73636;-79
2023/05/20 07:17:10;;;;;;;10.80;5.50;;;;;;;19.23;54.90;100579.70;106244;1254;62396;-77
2023/05/20 07:19:37;;;;;;;5.60;5.10;;;;;;;19.26;54.93;100581.44;106109;1259;61971;-77
2023/05/20 07:22:04;;;;;;;8.50;5.80;;;;;;;19.28;54.81;100572.16;106202;1257;73466;-75
2023/05/20 07:24:41;;;;;;;6.90;5.20;;;;;;;19.31;54.87;100578.27;105975;1254;70613;-77
2023/05/20 07:27:08;;;;;;;6.30;5.00;;;;;;;19.34;54.81;100575.48;105399;1254;74678;-76
2023/05/20 07:29:35;;;;;;;7.40;5.10;;;;;;;19.37;54.61;100575.87;105665;1253;60359;-77
2023/05/20 07:32:04;;;;;;;8.00;5.10;;;;;;;19.41;54.63;100580.52;105949;1254;60200;-77
2023/05/20 07:34:32;;;;;;;7.10;4.90;;;;;;;19.48;54.38;100580.14;106055;1254;75215;-77
2023/05/20 07:36:59;;;;;;;11.90;5.80;;;;;;;19.57;54.12;100586.33;106038;1258;69449;-77
2023/05/20 07:39:26;;;;;;;6.90;5.00;;;;;;;19.67;54.06;100585.45;105922;1255;74747;-75
2023/05/20 07:41:53;;;;;;;9.30;5.00;;;;;;;19.77;53.73;100588.09;105364;1256;62808;-75
2023/05/20 07:44:23;;;;;;;9.00;5.60;;;;;;;19.85;53.16;100583.40;105315;1258;60989;-75
2023/05/20 07:46:51;;;;;;;5.50;4.70;;;;;;;19.89;52.47;100585.06;105936;1258;73088;-77
2023/05/20 07:49:19;;;;;;;8.30;5.10;;;;;;;19.93;52.37;100584.35;106215;1255;71631;-77
2023/05/20 07:51:46;;;;;;;11.20;5.00;;;;;;;19.99;51.89;100577.25;106150;1256;74549;-74
2023/05/20 07:54:14;;;;;;;8.40;4.90;;;;;;;20.06;51.47;100578.54;106160;1254;61867;-74
2023/05/20 07:56:45;;;;;;;8.70;5.20;;;;;;;20.12;51.21;100579.76;105279;1259;61956;-76
2023/05/20 07:59:12;;;;;;;7.60;4.70;;;;;;;20.14;50.90;100579.64;106112;1254;76164;-76
2023/05/20 08:01:42;;;;;;;7.70;4.30;;;;;;;20.15;50.96;100580.30;106095;1258;72698;-76
2023/05/20 08:04:10;;;;;;;7.70;4.80;;;;;;;20.19;50.63;100578.30;105674;1254;74596;-75
2023/05/20 08:06:38;;;;;;;5.20;4.50;;;;;;;20.24;50.45;100578.13;105919;1259;61491;-76
2023/05/20 08:09:06;;;;;;;9.80;5.00;;;;;;;20.30;50.56;100581.17;105951;1259;60713;-75
2023/05/20 08:11:35;;;;;;;6.20;4.90;;;;;;;20.36;50.58;100578.41;105761;1254;76157;-73
2023/05/20 08:14:02;;;;;;;7.70;4.90;;;;;;;20.43;50.59;100570.50;105943;1257;71035;-75
2023/05/20 08:16:35;;;;;;;5.80;4.50;;;;;;;20.49;50.48;100574.35;105639;1260;73884;-74
2023/05/20 08:19:02;;;;;;;5.70;4.50;;;;;;;20.52;50.52;100571.41;105903;1254;62353;-73
2023/05/20 08:21:29;;;;;;;5.80;4.10;;;;;;;20.59;50.12;100566.35;105801;1255;60405;-76
2023/05/20 08:23:56;;;;;;;7.40;4.50;;;;;;;20.68;49.19;100572.22;105636;1258;75737;-77
2023/05/20 08:26:23;;;;;;;5.90;4.50;;;;;;;20.76;48.95;100572.35;105625;1264;71478;-76
2023/05/20 08:28:50;;;;;;;6.00;4.20;;;;;;;20.91;48.57;100570.33;105715;1258;72310;-74
2023/05/20 08:31:18;;;;;;;9.10;4.30;;;;;;;21.06;48.44;100573.44;105759;1256;60478;-75
2023/05/20 08:33:45;;;;;;;8.80;4.30;;;;;;;21.18;47.66;100576.91;105548;1258;62722;-75
2023/05/20 08:36:12;;;;;;;4.80;4.20;;;;;;;21.28;47.52;100575.60;105783;1254;74789;-74
2023/05/20 08:38:39;;;;;;;5.60;4.60;;;;;;;21.37;47.54;100565.58;105728;1254;70657;-76
2023/05/20 08:41:06;;;;;;;5.20;4.40;;;;;;;21.45;47.85;100571.45;105809;1257;72977;-74
2023/05/20 08:43:33;;;;;;;8.30;4.00;;;;;;;21.57;47.85;100576.98;105855;1256;60672;-77
2023/05/20 08:46:02;;;;;;;7.00;3.80;;;;;;;21.73;48.03;100564.62;105732;1259;62580;-76
2023/05/20 08:48:30;;;;;;;6.80;4.00;;;;;;;21.94;47.73;100560.84;105856;1254;74491;-75
2023/05/20 08:50:58;;;;;;;5.30;4.30;;;;;;;22.14;47.14;100557.23;105901;1254;72419;-76
2023/05/20 08:53:25;;;;;;;8.10;4.20;;;;;;;22.35;46.76;100559.98;106317;1253;74943;-73
2023/05/20 08:55:56;;;;;;;7.30;4.50;;;;;;;22.56;45.98;100559.77;107091;1256;61261;-75
2023/05/20 08:58:28;;;;;;;10.00;4.20;;;;;;;22.75;45.59;100557.70;106706;1258;59532;-75
2023/05/20 09:00:55;;;;;;;8.10;3.80;;;;;;;22.95;45.04;100552.29;106230;1255;75019;-75
2023/05/20 09:03:23;;;;;;;4.90;3.90;;;;;;;23.14;44.78;100557.14;105677;1258;71921;-77
2023/05/20 09:05:51;;;;;;;7.10;4.20;;;;;;;23.33;44.36;100555.85;105809;1253;73567;-76
2023/05/20 09:08:18;;;;;;;6.50;4.20;;;;;;;23.58;43.58;100543.44;105797;1253;62109;-75
2023/05/20 09:10:45;;;;;;;5.40;3.50;;;;;;;23.83;42.73;100550.48;105903;1253;62261;-75
2023/05/20 09:13:12;;;;;;;5.30;3.70;;;;;;;24.10;42.25;100547.48;105931;1253;76250;-76
2023/05/20 09:15:40;;;;;;;7.00;3.60;;;;;;;24.42;41.75;100549.85;105976;1257;71689;-76
2023/05/20 09:18:07;;;;;;;6.90;4.00;;;;;;;24.74;40.95;100556.05;105942;1259;75139;-75
2023/05/20 09:20:36;;;;;;;5.90;3.80;;;;;;;25.10;40.64;100559.42;105842;1253;62320;-75
2023/05/20 09:23:05;;;;;;;5.40;3.50;;;;;;;25.50;40.21;100556.33;105660;1254;59791;-74
2023/05/20 09:25:32;;;;;;;5.30;3.80;;;;;;;26.05;39.72;100548.45;105651;1253;75993;-76
2023/05/20 09:27:59;;;;;;;7.00;3.80;;;;;;;26.62;38.94;100544.06;105792;1254;71493;-75
2023/05/20 09:30:27;;;;;;;3.70;3.40;;;;;;;27.06;37.95;100550.86;105864;1260;73239;-76
2023/05/20 09:32:59;;;;;;;5.70;3.90;;;;;;;27.37;37.69;100554.55;105848;1260;61297;-74
2023/05/20 09:35:26;;;;;;;4.60;3.50;;;;;;;27.78;37.26;100555.67;105999;1254;61258;-76
2023/05/20 09:37:55;;;;;;;5.30;3.90;;;;;;;28.29;36.72;100549.42;106202;1253;74304;-77
2023/05/20 09:40:25;;;;;;;7.10;3.60;;;;;;;28.83;35.47;100547.55;106221;1258;71795;-77
2023/05/20 09:42:53;;;;;;;7.00;3.60;;;;;;;29.20;35.06;100548.17;106277;1253;74699;-76
2023/05/20 09:45:21;;;;;;;9.80;3.90;;;;;;;29.57;34.61;100552.63;106044;1259;61789;-77
2023/05/20 09:47:49;;;;;;;3.80;3.50;;;;;;;30.04;33.93;100554.85;105986;1253;62239;-76
2023/05/20 09:50:19;;;;;;;4.70;3.40;;;;;;;30.48;33.43;100548.57;106205;1255;73994;-76
2023/05/20 09:52:48;;;;;;;3.20;2.90;;;;;;;30.82;32.63;100553.23;105917;1256;71116;-75
2023/05/20 09:55:16;;;;;;;7.60;3.20;;;;;;;31.06;31.84;100545.22;106184;1254;71929;-77
2023/05/20 09:57:43;;;;;;;3.80;3.00;;;;;;;31.26;31.67;100546.89;105625;1258;60975;-76
2023/05/20 10:00:16;;;;;;;3.10;2.60;;;;;;;31.56;31.79;100547.04;106043;1260;61625;-79
2023/05/20 10:02:44;;;;;;;3.20;2.90;;;;;;;31.93;31.13;100550.79;106066;1256;74950;-79
2023/05/20 10:05:32;;;;;;;4.40;3.20;;;;;;;32.20;30.89;100545.27;105953;1255;71322;-77
2023/05/20 10:08:25;;;;;;;4.90;3.40;;;;;;;32.49;30.54;100550.64;106170;1254;73673;-78
2023/05/20 10:11:06;;;;;;;5.50;3.10;;;;;;;32.63;30.03;100544.59;106242;1253;62503;-76
2023/05/20 10:13:55;;;;;;;3.40;3.10;;;;;;;32.60;29.57;100549.41;105601;1253;62359;-76
2023/05/20 10:16:31;;;;;;;4.70;3.40;;;;;;;32.68;29.43;100548.16;106254;1256;77155;-77
2023/05/20 10:19:20;;;;;;;3.50;3.20;;;;;;;32.82;28.98;100538.71;105919;1259;68731;-76
2023/05/20 10:22:01;;;;;;;5.10;3.40;;;;;;;33.02;29.08;100538.34;106166;1253;75167;-78
2023/05/20 10:24:36;;;;;;;3.50;2.80;;;;;;;33.27;28.85;100535.60;106009;1256;62348;-78
2023/05/20 10:27:06;;;;;;;4.00;3.20;;;;;;;33.43;28.78;100531.59;106076;1253;60362;-77
2023/05/20 10:29:45;;;;;;;4.10;2.70;;;;;;;33.65;28.64;100525.52;106234;1253;76540;-79
2023/05/20 10:32:28;;;;;;;3.50;3.20;;;;;;;33.96;28.66;100526.23;106287;1253;72263;-77
2023/05/20 10:35:19;;;;;;;5.80;3.50;;;;;;;34.21;28.24;100529.95;107427;1255;74938;-78
2023/05/20 10:37:47;;;;;;;3.60;2.80;;;;;;;34.45;28.18;100526.86;107867;1253;61263;-77
2023/05/20 10:40:17;;;;;;;4.10;3.30;;;;;;;34.71;28.14;100529.01;108066;1258;61623;-78
2023/05/20 10:42:46;;;;;;;4.70;3.20;;;;;;;34.84;27.48;100531.14;107806;1253;75959;-78
2023/05/20 10:45:28;;;;;;;3.80;3.50;;;;;;;34.75;27.56;100526.94;107727;1253;62863;-76
2023/05/20 10:47:57;;;;;;;4.10;3.20;;;;;;;34.77;28.01;100527.16;107353;1254;66134;-76
2023/05/20 10:50:34;;;;;;;4.40;3.40;;;;;;;34.91;28.19;100522.25;107350;1253;59333;-74
2023/05/20 10:53:05;;;;;;;5.80;3.50;;;;;;;35.08;27.38;100523.77;107322;1253;59681;-78
2023/05/20 10:55:40;;;;;;;6.20;3.30;;;;;;;35.11;27.20;100523.38;107699;1253;65851;-79
2023/05/20 10:58:09;;;;;;;4.50;3.60;;;;;;;35.21;27.38;100517.45;108163;1253;62306;-79
2023/05/20 11:00:36;;;;;;;3.80;3.40;;;;;;;35.41;27.52;100522.02;107706;1256;65200;-77
2023/05/20 11:03:04;;;;;;;5.10;3.20;;;;;;;35.64;27.07;100521.98;107108;1253;59277;-79
2023/05/20 11:05:32;;;;;;;4.10;3.30;;;;;;;35.79;26.79;100519.59;107427;1253;59807;-78
2023/05/20 11:08:02;;;;;;;3.80;3.30;;;;;;;35.83;26.99;100517.48;107632;1259;67114;-77
2023/05/20 11:10:36;;;;;;;4.40;3.50;;;;;;;35.87;27.11;100525.17;108167;1253;61133;-78
2023/05/20 11:13:03;;;;;;;3.30;2.90;;;;;;;35.91;26.90;100529.54;108297;1253;65390;-78
2023/05/20 11:15:32;;;;;;;5.00;3.20;;;;;;;35.93;26.81;100526.71;108764;1253;61277;-79
2023/05/20 11:18:01;;;;;;;6.50;3.20;;;;;;;36.11;26.53;100533.13;108873;1253;59048;-83
2023/05/20 11:20:29;;;;;;;4.30;3.20;;;;;;;36.34;26.46;100525.84;108752;1256;65981;-78
2023/05/20 11:22:55;;;;;;;5.40;3.20;;;;;;;36.54;26.37;100521.40;108393;1253;62956;-77
2023/05/20 11:25:22;;;;;;;5.40;2.80;;;;;;;36.74;26.07;100526.16;108735;1253;64780;-79